Thursday, January 17, 2019, 8:25 PM EST
Back to Local

KCON, Concord, Concord Municipal Airport

Location: Concord, NH, United States Lat: 43.195
Local Time: 8:25 PM EST ( 1:25 GMT) Lon: -71.501
Time Zone: US/Eastern Elev: 344 ft

Show me the last for .
Show Decoded

2019-01-17 19:51 METAR KCON 180051Z AUTO 00000KT 10SM SCT120 M09/M15 A3032 RMK AO2 SLP274
                 T10891150 =
2019-01-17 18:51 METAR KCON 172351Z AUTO 00000KT 10SM SCT120 M09/M16 A3032 RMK AO2 SLP277
                 T10891161 11050 21094 53003 =
2019-01-17 17:51 METAR KCON 172251Z AUTO 00000KT 10SM CLR M09/M15 A3032 RMK AO2 SLP276 T10941150
                 =
2019-01-17 16:51 METAR KCON 172151Z AUTO 00000KT 10SM CLR M07/M19 A3031 RMK AO2 SLP272 T10721189
                 =
2019-01-17 15:51 METAR KCON 172051Z AUTO 01004KT 10SM CLR M06/M19 A3031 RMK AO2 SLP272 T10611194
                 57011 =
2019-01-17 14:51 METAR KCON 171951Z AUTO 34004KT 10SM CLR M06/M19 A3033 RMK AO2 SLP277 T10561189
                 =
2019-01-17 13:51 METAR KCON 171851Z AUTO 36004KT 10SM CLR M06/M19 A3033 RMK AO2 SLP279 T10561194
                 =
2019-01-17 12:51 METAR KCON 171751Z AUTO 30004KT 10SM CLR M07/M19 A3035 RMK AO2 SLP283 T10721194
                 11072 21144 58022 =
2019-01-17 11:51 METAR KCON 171651Z AUTO 32007KT 10SM CLR M08/M18 A3037 RMK AO2 SLP292 T10831183
                 =
2019-01-17 10:51 METAR KCON 171551Z AUTO 31009KT 10SM CLR M10/M19 A3041 RMK AO2 SLP305 T11001189
                 =
2019-01-17 09:51 METAR KCON 171451Z AUTO 32008KT 10SM CLR M11/M19 A3042 RMK AO2 SLP306 T11111189
                 53017 =
2019-01-17 08:51 METAR KCON 171351Z AUTO 33008KT 10SM CLR M13/M19 A3040 RMK AO2 SLP299 T11281189
                 =
2019-01-17 07:51 METAR KCON 171251Z AUTO 31008KT 10SM CLR M14/M19 A3037 RMK AO2 SLP291 T11391194
                 =
2019-01-17 06:51 METAR KCON 171151Z AUTO 34004KT 10SM CLR M14/M19 A3036 RMK AO2 SLP289 T11441194
                 11089 21144 51022 =
2019-01-17 05:51 METAR KCON 171051Z AUTO 34004KT 10SM CLR M13/M19 A3035 RMK AO2 SLP283 T11331194
                 =
2019-01-17 04:51 METAR KCON 170951Z AUTO 35004KT 10SM CLR M13/M18 A3032 RMK AO2 SLP274 T11281183
                 =
2019-01-17 03:51 METAR KCON 170851Z AUTO 32014G19KT 10SM CLR M12/M18 A3030 RMK AO2 SLP266
                 T11171183 51032 =
2019-01-17 02:51 METAR KCON 170751Z AUTO 31009KT 10SM CLR M11/M18 A3028 RMK AO2 SLP261 T11111183
                 =
2019-01-17 01:51 METAR KCON 170651Z AUTO 32009KT 10SM CLR M11/M18 A3025 RMK AO2 SLP249 T11061183
                 =
2019-01-17 00:51 METAR KCON 170551Z AUTO 31010G18KT 10SM CLR M09/M17 A3020 RMK AO2 SLP233
                 T10891172 10011 21089 51041 =
2019-01-16 23:51 METAR KCON 170451Z AUTO 32011G18KT 10SM CLR M07/M16 A3016 RMK AO2 SLP220
                 T10721156 400221106 =
2019-01-16 22:51 METAR KCON 170351Z AUTO 33014G21KT 10SM CLR M05/M13 A3013 RMK AO2 SLP209
                 T10501128 =
2019-01-16 21:51 METAR KCON 170251Z AUTO 31009KT 10SM FEW046 M03/M10 A3008 RMK AO2 SLP192
                 T10331100 53045 =
2019-01-16 20:51 METAR KCON 170151Z AUTO 33017G27KT 10SM SCT045 OVC055 M01/M07 A3003 RMK AO2 PK
                 WND 30031/0130 SLP173 T10111072 =

Support USWX by starting your Amazon purchase here.